Time;durP1;ratioP1;P1;durP2;ratioP2;P2;SDS_P1;SDS_P2;PMS_P1;PMS_P2;Temp;Humidity;BMP_temperature;BMP_pressure;BME280_temperature;BME280_humidity;BME280_pressure;Samples;Min_cycle;Max_cycle;Signal;HPM_P1;HPM_P2
2023/05/28 00:01:17;;;;;;;4.57;4.18;;;;;;;17.44;68.11;94811.66;4981697;28;20224;-72
2023/05/28 00:03:43;;;;;;;5.10;4.60;;;;;;;17.44;67.26;94799.19;4989787;28;20211;-70
2023/05/28 00:06:09;;;;;;;6.10;4.55;;;;;;;17.34;67.34;94812.03;4997893;28;20228;-71
2023/05/28 00:08:34;;;;;;;4.43;4.03;;;;;;;17.30;67.43;94821.44;4985780;28;20310;-71
2023/05/28 00:11:00;;;;;;;4.78;4.10;;;;;;;17.30;67.77;94808.97;4985030;28;20191;-71
2023/05/28 00:13:27;;;;;;;5.22;4.72;;;;;;;17.40;67.95;94817.38;4987702;28;20314;-71
2023/05/28 00:15:53;;;;;;;5.20;4.70;;;;;;;17.36;68.55;94813.47;4986156;28;20215;-72
2023/05/28 00:18:19;;;;;;;5.05;4.55;;;;;;;17.35;67.84;94819.81;4983377;28;20243;-71
2023/05/28 00:20:45;;;;;;;5.32;4.55;;;;;;;17.33;68.13;94818.38;4988645;28;20266;-70
2023/05/28 00:23:11;;;;;;;5.20;4.70;;;;;;;17.32;69.01;94812.25;4987483;28;20214;-71
2023/05/28 00:25:36;;;;;;;5.00;4.50;;;;;;;17.38;69.19;94815.94;4986547;28;20187;-71
2023/05/28 00:28:02;;;;;;;5.25;4.40;;;;;;;17.38;69.18;94806.13;4999517;28;20223;-71
2023/05/28 00:30:29;;;;;;;4.97;4.47;;;;;;;17.36;68.99;94807.34;4984709;28;20222;-72
2023/05/28 00:32:54;;;;;;;4.78;4.22;;;;;;;17.25;69.13;94800.75;4988782;28;20235;-71
2023/05/28 00:35:20;;;;;;;4.85;4.45;;;;;;;17.11;68.35;94794.56;4988604;28;20645;-71
2023/05/28 00:37:45;;;;;;;4.55;4.10;;;;;;;17.16;68.40;94802.78;4999926;28;20188;-71
2023/05/28 00:40:11;;;;;;;4.93;4.40;;;;;;;17.13;68.81;94800.53;5005945;28;20361;-71
2023/05/28 00:42:36;;;;;;;4.88;4.38;;;;;;;17.12;68.71;94795.38;4991295;28;20269;-71
2023/05/28 00:45:02;;;;;;;5.63;5.07;;;;;;;17.05;68.83;94795.34;5008423;28;20227;-71
2023/05/28 00:47:28;;;;;;;5.47;4.55;;;;;;;16.93;69.23;94796.94;5008979;28;20286;-70
2023/05/28 00:49:55;;;;;;;5.22;4.72;;;;;;;17.03;68.62;94797.41;5009774;28;20725;-70
2023/05/28 00:52:21;;;;;;;4.80;4.28;;;;;;;16.98;68.65;94799.81;5010997;28;20301;-71
2023/05/28 00:54:48;;;;;;;5.20;4.13;;;;;;;16.99;68.72;94790.81;5010262;28;20614;-70
2023/05/28 00:57:14;;;;;;;5.50;4.38;;;;;;;17.00;68.34;94791.63;5010228;28;20222;-71
2023/05/28 00:59:41;;;;;;;5.50;3.60;;;;;;;16.91;68.54;94791.81;5004132;28;20230;-71
2023/05/28 01:02:06;;;;;;;4.03;3.60;;;;;;;16.85;68.98;94795.25;5009727;28;20195;-71
2023/05/28 01:04:32;;;;;;;3.40;3.10;;;;;;;16.85;68.57;94794.44;5005493;28;20349;-70
2023/05/28 01:06:59;;;;;;;3.97;3.67;;;;;;;16.74;68.77;94791.28;5005496;28;20688;-71
2023/05/28 01:09:25;;;;;;;4.00;3.63;;;;;;;16.64;69.26;94793.47;5007225;28;20218;-72
2023/05/28 01:11:53;;;;;;;4.05;3.63;;;;;;;16.70;69.07;94782.06;5006672;28;20238;-71
2023/05/28 01:14:19;;;;;;;3.90;3.50;;;;;;;16.60;68.58;94776.28;5007475;28;20195;-71
2023/05/28 01:16:48;;;;;;;3.35;3.05;;;;;;;16.54;68.26;94767.28;5009845;28;20561;-71
2023/05/28 01:19:18;;;;;;;3.85;3.45;;;;;;;16.40;68.82;94772.69;5017403;28;20306;-69
2023/05/28 01:21:45;;;;;;;3.88;3.35;;;;;;;16.51;68.54;94767.63;5003118;28;20224;-70
2023/05/28 01:24:13;;;;;;;3.70;3.40;;;;;;;16.49;68.57;94763.53;4988877;28;20664;-70
2023/05/28 01:26:40;;;;;;;3.50;3.03;;;;;;;16.52;68.09;94771.94;5001406;28;20227;-69
2023/05/28 01:29:16;;;;;;;3.55;3.25;;;;;;;16.49;67.63;94766.19;5008294;28;20534;-70
2023/05/28 01:31:42;;;;;;;3.25;2.95;;;;;;;16.46;68.49;94772.72;5002276;28;20229;-70
2023/05/28 01:34:10;;;;;;;3.83;3.13;;;;;;;16.48;68.75;94773.34;5015525;28;20235;-71
2023/05/28 01:36:42;;;;;;;3.10;2.80;;;;;;;16.42;68.62;94770.66;5031160;28;20250;-70
2023/05/28 01:39:12;;;;;;;3.30;3.00;;;;;;;16.47;68.99;94771.72;5005684;28;20242;-70
2023/05/28 01:41:38;;;;;;;3.45;2.83;;;;;;;16.46;68.55;94764.75;5006052;28;20714;-69
2023/05/28 01:44:06;;;;;;;3.58;2.97;;;;;;;16.44;68.50;94781.88;5006575;28;20183;-69
2023/05/28 01:46:33;;;;;;;3.33;3.03;;;;;;;16.44;68.79;94771.25;5018588;28;20231;-69
2023/05/28 01:48:59;;;;;;;3.08;2.65;;;;;;;16.51;67.88;94766.81;5005489;28;20221;-69
2023/05/28 01:51:25;;;;;;;2.58;2.28;;;;;;;16.57;67.63;94759.91;5008735;28;20238;-69
2023/05/28 01:53:51;;;;;;;3.50;3.17;;;;;;;16.46;67.31;94763.94;5010131;28;20214;-69
2023/05/28 01:56:17;;;;;;;2.97;2.75;;;;;;;16.46;67.01;94759.44;5007202;28;21180;-70
2023/05/28 01:58:43;;;;;;;3.47;2.78;;;;;;;16.42;67.00;94755.56;5003010;28;20268;-70
2023/05/28 02:01:14;;;;;;;3.55;2.90;;;;;;;16.40;67.34;94764.72;5013795;28;20280;-70
2023/05/28 02:03:40;;;;;;;3.10;2.80;;;;;;;16.43;67.27;94759.00;5005224;28;20227;-70
2023/05/28 02:06:05;;;;;;;3.45;2.92;;;;;;;16.42;67.23;94752.09;5009921;28;20638;-71
2023/05/28 02:08:31;;;;;;;3.15;2.85;;;;;;;16.47;67.01;94760.28;5007574;28;20214;-70
2023/05/28 02:10:56;;;;;;;4.05;3.08;;;;;;;16.50;66.66;94767.84;5009612;28;21062;-70
2023/05/28 02:13:21;;;;;;;3.55;2.95;;;;;;;16.47;66.87;94766.41;5013452;28;20230;-71
2023/05/28 02:15:47;;;;;;;3.17;2.88;;;;;;;16.37;67.40;94757.16;5001822;28;20272;-70
2023/05/28 02:18:12;;;;;;;2.70;2.50;;;;;;;16.37;67.18;94759.81;5004088;28;20227;-70
2023/05/28 02:20:38;;;;;;;4.95;3.58;;;;;;;16.38;67.23;94766.75;4992623;28;20338;-70
2023/05/28 02:23:03;;;;;;;3.15;2.92;;;;;;;16.37;67.53;94750.00;5009444;28;20229;-71
2023/05/28 02:25:29;;;;;;;3.08;2.78;;;;;;;16.34;67.24;94757.53;5005456;28;20266;-71
2023/05/28 02:27:54;;;;;;;3.40;3.10;;;;;;;16.39;67.08;94763.91;5004936;28;20222;-71
2023/05/28 02:30:20;;;;;;;3.22;2.80;;;;;;;16.36;66.90;94774.06;4999264;28;20215;-70
2023/05/28 02:32:45;;;;;;;3.17;2.40;;;;;;;16.28;67.50;94775.88;4994297;28;20589;-70
2023/05/28 02:35:12;;;;;;;2.85;2.60;;;;;;;16.24;67.47;94766.63;5008087;28;20187;-71
2023/05/28 02:37:38;;;;;;;3.53;3.03;;;;;;;16.23;67.85;94769.50;5009235;28;20183;-71
2023/05/28 02:40:05;;;;;;;3.97;3.00;;;;;;;16.17;68.31;94765.78;5004893;28;20245;-72
2023/05/28 02:42:31;;;;;;;3.22;2.92;;;;;;;16.18;68.59;94767.41;5008952;28;20304;-73
2023/05/28 02:44:56;;;;;;;3.08;2.78;;;;;;;16.20;68.09;94765.41;4998006;28;20246;-73
2023/05/28 02:47:22;;;;;;;3.28;2.63;;;;;;;16.26;67.97;94763.81;5004815;28;20208;-73
2023/05/28 02:49:47;;;;;;;2.90;2.60;;;;;;;16.28;67.48;94761.78;5008044;28;20186;-73
2023/05/28 02:52:12;;;;;;;3.25;2.90;;;;;;;16.25;67.30;94760.34;5007173;28;20772;-72
2023/05/28 02:54:38;;;;;;;2.97;2.60;;;;;;;16.28;67.27;94777.72;5008707;28;20298;-71
2023/05/28 02:57:03;;;;;;;4.00;2.92;;;;;;;16.20;67.43;94770.72;5005603;28;20227;-72
2023/05/28 02:59:29;;;;;;;3.33;2.70;;;;;;;16.35;67.19;94777.75;5008627;28;20217;-71
2023/05/28 03:01:54;;;;;;;3.03;2.67;;;;;;;16.28;67.58;94778.53;5002895;28;20182;-71
2023/05/28 03:04:20;;;;;;;2.88;2.67;;;;;;;16.29;66.86;94766.06;5002932;28;20223;-71
2023/05/28 03:06:45;;;;;;;2.70;2.20;;;;;;;16.32;66.54;94771.81;5007625;28;20531;-71
2023/05/28 03:09:11;;;;;;;2.83;2.63;;;;;;;16.30;66.56;94767.69;5007210;28;20293;-72
2023/05/28 03:11:36;;;;;;;2.83;2.53;;;;;;;16.37;66.30;94773.06;5007432;28;20736;-71
2023/05/28 03:14:02;;;;;;;3.25;2.67;;;;;;;16.30;66.57;94765.03;5008494;28;20245;-72
2023/05/28 03:16:27;;;;;;;3.10;2.55;;;;;;;16.31;66.88;94767.53;5015419;28;20243;-71
2023/05/28 03:18:52;;;;;;;3.28;2.97;;;;;;;16.32;66.70;94771.81;5007126;28;20223;-70
2023/05/28 03:21:18;;;;;;;2.55;2.35;;;;;;;16.34;66.87;94770.81;5004681;28;20318;-70
2023/05/28 03:23:43;;;;;;;3.88;2.60;;;;;;;16.30;66.87;94781.81;4994622;28;20285;-70
2023/05/28 03:26:09;;;;;;;2.80;2.42;;;;;;;16.39;66.97;94776.34;5007563;28;20215;-70
2023/05/28 03:28:34;;;;;;;2.80;2.50;;;;;;;16.32;66.85;94774.44;5000307;28;20223;-70
2023/05/28 03:31:01;;;;;;;2.75;2.55;;;;;;;16.38;66.62;94780.81;5007158;28;20238;-70
2023/05/28 03:33:27;;;;;;;3.05;2.72;;;;;;;16.39;66.80;94773.69;5004536;28;20270;-69
2023/05/28 03:35:52;;;;;;;3.15;2.85;;;;;;;16.38;66.73;94777.34;5000257;28;20226;-70
2023/05/28 03:38:17;;;;;;;3.10;2.90;;;;;;;16.26;66.96;94769.94;5001486;28;20190;-70
2023/05/28 03:40:43;;;;;;;3.70;3.13;;;;;;;16.25;67.33;94776.25;5007478;28;20195;-71
2023/05/28 03:43:08;;;;;;;3.13;2.88;;;;;;;16.29;67.18;94774.84;5006732;28;20225;-71
2023/05/28 03:45:34;;;;;;;2.83;2.63;;;;;;;16.20;67.54;94776.00;5005760;28;20278;-71
2023/05/28 03:48:02;;;;;;;4.15;2.70;;;;;;;16.24;67.31;94777.25;5007224;28;20640;-70
2023/05/28 03:50:28;;;;;;;3.25;2.90;;;;;;;16.31;66.96;94775.47;5007670;28;20194;-71
2023/05/28 03:52:53;;;;;;;2.50;2.30;;;;;;;16.35;66.46;94772.44;5002695;28;20718;-71
2023/05/28 03:55:19;;;;;;;2.88;2.67;;;;;;;16.30;67.04;94779.16;5005448;28;20231;-70
2023/05/28 03:57:44;;;;;;;3.25;2.65;;;;;;;16.34;66.94;94781.41;5012568;28;20302;-70
2023/05/28 04:00:10;;;;;;;2.97;2.72;;;;;;;16.25;67.50;94789.53;5008130;28;20239;-71
2023/05/28 04:02:36;;;;;;;2.70;2.50;;;;;;;16.21;66.34;94777.63;5009338;28;20222;-72
2023/05/28 04:05:02;;;;;;;2.97;2.67;;;;;;;16.26;66.42;94780.53;5009379;28;20191;-71
2023/05/28 04:07:27;;;;;;;2.75;2.55;;;;;;;16.35;66.18;94777.75;4995039;28;20214;-71
2023/05/28 04:09:52;;;;;;;3.22;2.92;;;;;;;16.28;67.21;94783.81;5005492;28;20211;-71
2023/05/28 04:12:18;;;;;;;3.13;2.83;;;;;;;16.28;67.82;94780.34;4998584;28;20582;-70
2023/05/28 04:14:43;;;;;;;3.13;2.83;;;;;;;16.26;67.02;94785.84;5008563;28;20223;-70
2023/05/28 04:17:11;;;;;;;3.70;3.30;;;;;;;16.39;66.70;94790.44;4992485;28;20203;-71
2023/05/28 04:19:37;;;;;;;3.28;2.90;;;;;;;16.40;68.11;94792.06;5008369;28;20282;-71
2023/05/28 04:22:03;;;;;;;3.65;3.00;;;;;;;16.42;66.46;94790.06;5002446;28;20318;-70
2023/05/28 04:24:28;;;;;;;3.42;2.92;;;;;;;16.54;66.54;94792.97;5001705;28;20323;-70
2023/05/28 04:26:54;;;;;;;3.38;3.08;;;;;;;16.54;66.71;94785.00;5005793;28;20220;-70
2023/05/28 04:29:23;;;;;;;3.30;3.00;;;;;;;16.58;66.53;94793.44;5009845;28;20179;-70
2023/05/28 04:31:49;;;;;;;4.68;3.05;;;;;;;16.62;66.43;94798.13;5011051;28;20213;-70
2023/05/28 04:34:17;;;;;;;4.95;3.30;;;;;;;16.59;66.34;94790.56;5005895;28;20219;-71
2023/05/28 04:36:43;;;;;;;3.35;3.05;;;;;;;16.65;67.57;94795.13;5010038;28;20214;-72
2023/05/28 04:39:09;;;;;;;4.10;3.22;;;;;;;16.64;67.54;94793.47;5010452;28;20231;-71
2023/05/28 04:41:35;;;;;;;3.95;3.30;;;;;;;16.72;67.93;94793.31;5008862;28;20231;-70
2023/05/28 04:44:01;;;;;;;4.00;3.60;;;;;;;16.71;67.56;94788.19;5004745;28;20184;-70
2023/05/28 04:46:29;;;;;;;3.70;3.28;;;;;;;16.76;66.74;94791.91;5004948;28;20641;-70
2023/05/28 04:48:54;;;;;;;3.85;3.28;;;;;;;16.76;66.31;94799.88;5006726;28;20257;-70
2023/05/28 04:51:20;;;;;;;3.92;3.58;;;;;;;16.75;66.89;94800.88;5002496;28;20223;-70
2023/05/28 04:53:46;;;;;;;3.85;3.42;;;;;;;16.71;66.36;94794.31;5008477;28;20232;-69
2023/05/28 04:56:12;;;;;;;3.92;3.50;;;;;;;16.83;66.79;94804.44;5006605;28;20203;-70
2023/05/28 04:58:37;;;;;;;4.05;3.40;;;;;;;16.83;67.24;94794.63;5008351;28;20290;-70
2023/05/28 05:01:04;;;;;;;4.05;3.60;;;;;;;16.88;67.03;94794.84;5008367;28;20227;-69
2023/05/28 05:03:31;;;;;;;3.67;3.35;;;;;;;16.92;66.43;94797.94;4991107;28;20218;-70
2023/05/28 05:05:57;;;;;;;3.55;3.22;;;;;;;16.86;66.63;94786.25;5005255;28;20221;-71
2023/05/28 05:08:22;;;;;;;4.13;3.50;;;;;;;16.90;66.89;94798.16;5003285;28;20655;-71
2023/05/28 05:10:49;;;;;;;3.35;3.00;;;;;;;16.91;66.46;94801.63;5003127;28;20282;-71
2023/05/28 05:13:14;;;;;;;3.55;3.25;;;;;;;16.90;66.58;94805.28;5005633;28;20215;-72
2023/05/28 05:15:40;;;;;;;4.05;3.67;;;;;;;16.95;66.18;94805.53;5004671;28;20233;-72
2023/05/28 05:18:06;;;;;;;3.90;3.30;;;;;;;16.92;65.20;94787.31;5007949;28;20295;-72
2023/05/28 05:20:31;;;;;;;5.63;3.95;;;;;;;17.01;66.37;94791.47;5009054;28;20254;-71
2023/05/28 05:22:57;;;;;;;4.07;3.50;;;;;;;17.04;65.42;94783.09;5009108;28;20250;-71
2023/05/28 05:25:22;;;;;;;3.67;3.25;;;;;;;17.07;65.90;94795.97;5008048;28;20252;-71
2023/05/28 05:27:51;;;;;;;4.93;3.70;;;;;;;17.15;65.90;94789.69;5015488;28;20226;-69
2023/05/28 05:30:16;;;;;;;4.03;3.63;;;;;;;17.22;65.44;94789.72;5004514;28;20257;-70
2023/05/28 05:32:42;;;;;;;3.42;3.13;;;;;;;17.24;65.05;94787.66;5009564;28;20248;-70
2023/05/28 05:35:08;;;;;;;3.70;3.38;;;;;;;17.31;64.01;94793.84;5007561;28;20183;-70
2023/05/28 05:37:33;;;;;;;4.10;3.70;;;;;;;17.29;64.92;94790.53;5004486;28;20942;-70
2023/05/28 05:39:59;;;;;;;4.40;3.58;;;;;;;17.05;67.06;94790.03;5005766;28;20246;-73
2023/05/28 05:42:24;;;;;;;4.28;3.85;;;;;;;17.14;67.13;94780.91;5004694;28;20260;-73
2023/05/28 05:44:52;;;;;;;3.85;3.55;;;;;;;16.95;66.36;94786.94;5006316;28;20313;-73
2023/05/28 05:47:17;;;;;;;4.90;3.63;;;;;;;16.86;66.12;94788.91;5010205;28;20313;-73
2023/05/28 05:49:43;;;;;;;4.20;3.50;;;;;;;16.98;66.10;94776.72;5007957;28;20270;-78
2023/05/28 05:52:08;;;;;;;4.18;3.78;;;;;;;17.13;64.82;94789.88;5005965;28;20242;-77
2023/05/28 05:54:34;;;;;;;3.63;3.33;;;;;;;17.20;64.67;94792.56;5005304;28;20227;-72
2023/05/28 05:57:02;;;;;;;3.45;2.95;;;;;;;17.27;64.37;94792.56;5006867;28;20757;-72
2023/05/28 05:59:28;;;;;;;3.83;3.28;;;;;;;17.31;63.43;94792.00;5002532;28;20206;-73
2023/05/28 06:01:53;;;;;;;3.78;3.40;;;;;;;17.32;63.58;94791.00;5008460;28;20183;-72
2023/05/28 06:04:19;;;;;;;5.90;3.70;;;;;;;17.39;63.46;94791.81;5009277;28;20223;-72
2023/05/28 06:06:45;;;;;;;5.47;4.03;;;;;;;17.34;63.99;94796.09;5005727;28;20225;-73
2023/05/28 06:09:10;;;;;;;5.13;4.03;;;;;;;17.36;64.44;94794.88;5005831;28;20241;-71
2023/05/28 06:11:36;;;;;;;4.10;3.70;;;;;;;17.29;65.30;94786.03;5001453;28;20219;-73
2023/05/28 06:14:01;;;;;;;4.50;4.07;;;;;;;17.30;67.22;94792.19;4992993;28;20545;-71
2023/05/28 06:16:28;;;;;;;4.72;4.00;;;;;;;17.33;68.52;94797.13;5006893;28;20231;-73
2023/05/28 06:18:53;;;;;;;4.68;4.03;;;;;;;17.36;69.18;94797.53;5007297;28;20220;-72
2023/05/28 06:21:19;;;;;;;5.30;4.00;;;;;;;17.34;67.66;94793.44;5007439;28;20342;-72
2023/05/28 06:23:44;;;;;;;4.50;3.85;;;;;;;17.53;67.02;94803.31;5005565;28;20250;-72
2023/05/28 06:26:10;;;;;;;4.32;3.92;;;;;;;17.51;66.62;94807.19;5003102;28;20183;-72
2023/05/28 06:28:36;;;;;;;4.30;3.90;;;;;;;17.40;65.65;94804.09;5005774;28;20285;-74
2023/05/28 06:31:02;;;;;;;5.95;3.60;;;;;;;17.55;65.92;94803.94;5008390;28;20240;-71
2023/05/28 06:33:28;;;;;;;5.78;4.20;;;;;;;17.50;66.78;94802.88;5005239;28;20313;-76
2023/05/28 06:35:53;;;;;;;4.90;4.40;;;;;;;17.55;67.06;94805.78;5005111;28;21038;-76
2023/05/28 06:38:19;;;;;;;4.28;3.88;;;;;;;17.47;68.53;94808.59;5006500;28;20265;-75
2023/05/28 06:40:44;;;;;;;4.35;3.92;;;;;;;17.32;68.47;94803.44;5006054;28;20670;-76
2023/05/28 06:43:10;;;;;;;5.18;4.25;;;;;;;17.29;69.02;94807.31;5006815;28;20576;-76
2023/05/28 06:45:35;;;;;;;5.07;3.83;;;;;;;17.36;68.49;94810.00;5001740;28;20601;-75
2023/05/28 06:48:01;;;;;;;5.10;3.78;;;;;;;17.31;68.50;94810.59;5006984;28;20967;-74
2023/05/28 06:50:26;;;;;;;4.30;3.22;;;;;;;17.31;69.49;94815.09;5006626;28;20191;-75
2023/05/28 06:52:52;;;;;;;4.55;3.50;;;;;;;17.35;69.90;94811.84;5008471;28;20214;-71
2023/05/28 06:55:17;;;;;;;3.50;3.17;;;;;;;17.24;68.88;94811.56;5001288;28;20528;-70
2023/05/28 06:57:44;;;;;;;3.55;3.25;;;;;;;17.04;67.82;94809.66;5007247;28;20250;-70
2023/05/28 07:00:16;;;;;;;3.05;2.78;;;;;;;17.03;69.43;94815.19;5007868;28;20246;-70
2023/05/28 07:02:45;;;;;;;3.28;3.00;;;;;;;17.02;70.45;94811.69;5005717;28;20250;-69
2023/05/28 07:05:11;;;;;;;4.03;3.63;;;;;;;17.14;69.23;94815.44;5007912;28;20194;-71
2023/05/28 07:07:36;;;;;;;4.07;3.55;;;;;;;17.20;68.17;94811.97;5008126;28;20223;-74
2023/05/28 07:10:02;;;;;;;3.88;3.53;;;;;;;17.24;67.99;94819.53;5007494;28;20225;-72
2023/05/28 07:12:29;;;;;;;3.95;3.60;;;;;;;17.37;68.12;94819.59;4996865;28;20222;-73
2023/05/28 07:14:55;;;;;;;4.57;3.30;;;;;;;17.52;67.45;94819.47;4997168;28;20226;-74
2023/05/28 07:17:20;;;;;;;4.57;3.85;;;;;;;17.64;67.21;94813.38;5007620;28;20195;-74
2023/05/28 07:19:47;;;;;;;4.60;3.67;;;;;;;17.79;67.09;94807.09;5003740;28;20222;-73
2023/05/28 07:22:12;;;;;;;4.47;4.07;;;;;;;18.03;66.53;94808.38;5004345;28;20229;-75
2023/05/28 07:24:37;;;;;;;4.35;3.75;;;;;;;18.32;65.70;94814.31;5005809;28;20219;-75
2023/05/28 07:27:03;;;;;;;4.32;3.92;;;;;;;18.45;65.56;94809.81;5007501;28;20732;-73
2023/05/28 07:29:28;;;;;;;4.07;3.65;;;;;;;18.38;64.77;94800.19;5003864;28;20205;-73
2023/05/28 07:31:54;;;;;;;4.47;3.60;;;;;;;18.49;64.41;94808.38;5006144;28;20211;-73
2023/05/28 07:34:20;;;;;;;4.82;3.88;;;;;;;18.38;64.69;94810.84;5005036;28;20230;-72
2023/05/28 07:36:46;;;;;;;4.30;3.80;;;;;;;18.44;64.54;94799.38;5005872;28;20714;-74
2023/05/28 07:39:11;;;;;;;3.75;3.40;;;;;;;18.36;65.21;94795.06;5001867;28;20229;-73
2023/05/28 07:41:37;;;;;;;4.40;4.00;;;;;;;18.38;64.83;94794.88;5004872;28;20223;-72
2023/05/28 07:44:03;;;;;;;3.20;2.90;;;;;;;18.37;64.43;94795.91;5006936;28;20183;-75
2023/05/28 07:46:29;;;;;;;2.55;2.35;;;;;;;18.30;64.33;94798.56;4987772;28;20302;-75
2023/05/28 07:48:54;;;;;;;3.13;2.72;;;;;;;18.28;64.38;94797.94;5014683;28;20302;-74
2023/05/28 07:51:20;;;;;;;2.53;2.33;;;;;;;18.51;65.03;94795.66;5001103;28;20284;-75
2023/05/28 07:53:46;;;;;;;2.50;2.20;;;;;;;18.61;64.62;94783.81;5005795;28;20240;-76
2023/05/28 07:56:11;;;;;;;3.05;2.55;;;;;;;18.70;64.67;94785.22;5005357;28;20211;-75
2023/05/28 07:58:37;;;;;;;2.30;2.10;;;;;;;18.76;64.63;94779.06;5001832;28;20219;-75
2023/05/28 08:01:08;;;;;;;2.70;2.50;;;;;;;18.62;63.35;94782.75;4997006;28;20247;-75
2023/05/28 08:03:34;;;;;;;2.47;2.28;;;;;;;18.44;65.12;94784.22;5003769;28;20222;-75
2023/05/28 08:06:00;;;;;;;2.40;2.20;;;;;;;18.60;65.18;94792.78;5006682;28;20728;-74
2023/05/28 08:08:27;;;;;;;2.97;2.25;;;;;;;18.55;64.49;94787.28;5003163;28;20216;-75
2023/05/28 08:10:52;;;;;;;2.63;2.42;;;;;;;18.53;64.06;94790.16;5005178;28;20197;-74
2023/05/28 08:13:18;;;;;;;1.90;1.70;;;;;;;18.63;63.74;94793.22;5005119;28;20219;-74
2023/05/28 08:15:43;;;;;;;2.50;2.30;;;;;;;18.61;61.66;94787.28;5006429;28;20317;-74
2023/05/28 08:18:08;;;;;;;3.03;2.50;;;;;;;18.34;61.95;94789.16;5004690;28;20215;-76
2023/05/28 08:20:35;;;;;;;3.15;2.22;;;;;;;18.38;63.41;94787.69;5003286;28;20250;-75
2023/05/28 08:23:02;;;;;;;3.28;2.30;;;;;;;18.60;62.85;94795.47;5005972;28;20221;-76
2023/05/28 08:25:28;;;;;;;2.47;2.28;;;;;;;18.72;63.12;94785.81;5004644;28;20746;-74
2023/05/28 08:27:53;;;;;;;2.13;1.92;;;;;;;19.00;62.45;94785.56;5006209;28;20294;-76
2023/05/28 08:30:19;;;;;;;2.35;2.15;;;;;;;19.25;61.35;94790.22;5003756;28;20222;-71
2023/05/28 08:32:44;;;;;;;2.22;2.03;;;;;;;19.60;60.88;94802.16;4999987;28;20230;-73
2023/05/28 08:35:10;;;;;;;2.50;2.30;;;;;;;19.77;60.74;94796.34;5004069;28;20183;-75
2023/05/28 08:37:36;;;;;;;3.08;2.67;;;;;;;19.96;60.05;94792.75;5004981;28;20242;-75
2023/05/28 08:40:02;;;;;;;3.00;1.73;;;;;;;20.27;57.16;94791.91;5005147;28;20234;-75
2023/05/28 08:42:28;;;;;;;1.95;1.77;;;;;;;20.41;56.13;94799.81;5004268;28;20226;-73
2023/05/28 08:44:54;;;;;;;1.83;1.67;;;;;;;20.59;56.90;94786.56;5000807;28;20234;-75
2023/05/28 08:47:21;;;;;;;2.20;2.00;;;;;;;20.66;56.52;94786.47;5005027;28;20302;-74
2023/05/28 08:49:53;;;;;;;2.30;1.80;;;;;;;20.78;54.81;94786.59;5010062;28;20199;-73
2023/05/28 08:52:22;;;;;;;1.77;1.67;;;;;;;20.51;53.76;94788.66;4998068;28;20219;-75
2023/05/28 08:54:48;;;;;;;1.70;1.60;;;;;;;20.30;56.76;94789.84;5002179;28;20219;-75
2023/05/28 08:57:15;;;;;;;2.30;1.77;;;;;;;19.91;56.09;94797.91;5010690;28;20219;-75
2023/05/28 08:59:41;;;;;;;1.70;1.60;;;;;;;19.92;55.97;94796.09;5003454;28;20242;-74
2023/05/28 09:02:08;;;;;;;2.47;2.03;;;;;;;19.90;57.62;94787.47;4988711;28;20183;-74
2023/05/28 09:04:34;;;;;;;1.95;1.80;;;;;;;20.28;56.48;94782.84;5001921;28;20259;-75
2023/05/28 09:06:59;;;;;;;2.15;1.95;;;;;;;20.44;54.46;94772.69;4996226;28;20224;-75
2023/05/28 09:09:26;;;;;;;1.98;1.83;;;;;;;20.47;54.50;94772.22;4986567;28;20708;-75
2023/05/28 09:11:58;;;;;;;2.55;2.20;;;;;;;20.42;54.10;94780.94;4987214;28;20235;-75
2023/05/28 09:14:24;;;;;;;2.05;1.95;;;;;;;20.21;54.43;94778.63;4981484;28;20254;-76
2023/05/28 09:16:49;;;;;;;1.88;1.75;;;;;;;19.96;55.47;94781.25;4989932;28;20205;-75
2023/05/28 09:19:15;;;;;;;2.20;2.00;;;;;;;19.93;55.88;94779.03;5001364;28;20224;-75
2023/05/28 09:21:56;;;;;;;1.90;1.60;;;;;;;19.79;55.84;94780.97;4986898;28;20262;-76
2023/05/28 09:24:24;;;;;;;2.55;1.52;;;;;;;19.48;55.91;94777.19;4982330;28;20234;-76
2023/05/28 09:26:50;;;;;;;2.45;1.85;;;;;;;19.24;56.28;94776.06;5002674;28;20711;-75
2023/05/28 09:29:15;;;;;;;1.73;1.63;;;;;;;19.14;57.17;94779.19;4986722;28;20547;-74
2023/05/28 09:31:41;;;;;;;1.80;1.70;;;;;;;19.23;57.63;94773.63;4990721;28;20191;-74
2023/05/28 09:34:07;;;;;;;2.20;1.80;;;;;;;19.04;58.00;94770.00;4986039;28;20231;-74
2023/05/28 09:36:36;;;;;;;2.10;1.90;;;;;;;19.20;58.29;94777.53;5002905;28;20218;-74
2023/05/28 09:39:07;;;;;;;2.25;2.00;;;;;;;19.21;57.80;94770.34;4994134;28;20226;-74
2023/05/28 09:41:33;;;;;;;2.38;2.17;;;;;;;19.37;57.10;94777.84;4999123;28;20226;-73
2023/05/28 09:44:04;;;;;;;2.40;2.20;;;;;;;19.51;56.44;94775.94;5006974;28;20266;-73
2023/05/28 09:46:34;;;;;;;2.50;2.30;;;;;;;19.61;56.35;94789.63;5008502;28;20233;-74
2023/05/28 09:49:01;;;;;;;2.70;2.10;;;;;;;19.60;56.02;94788.81;5015494;28;20628;-73
2023/05/28 09:51:31;;;;;;;2.97;2.53;;;;;;;19.39;56.05;94789.94;5016878;28;20229;-74
2023/05/28 09:54:00;;;;;;;3.00;2.70;;;;;;;19.33;55.80;94790.81;4999139;28;20238;-73
2023/05/28 09:56:31;;;;;;;2.80;2.05;;;;;;;19.33;56.75;94784.66;5006053;28;20720;-74
2023/05/28 09:58:58;;;;;;;3.20;2.47;;;;;;;19.35;56.93;94780.75;5005423;28;20687;-74
2023/05/28 10:01:26;;;;;;;2.55;2.13;;;;;;;19.52;56.47;94782.94;5005383;28;20331;-74
2023/05/28 10:04:09;;;;;;;2.72;1.80;;;;;;;19.65;56.78;94790.88;4997213;28;20230;-75
2023/05/28 10:06:37;;;;;;;2.45;2.10;;;;;;;19.70;56.24;94796.41;5003122;28;20219;-74
2023/05/28 10:09:04;;;;;;;2.08;1.90;;;;;;;19.71;55.73;94795.38;5001825;28;20285;-73
2023/05/28 10:11:36;;;;;;;2.20;2.00;;;;;;;19.52;56.20;94775.75;4986431;28;20200;-75
2023/05/28 10:14:03;;;;;;;2.40;2.20;;;;;;;19.77;55.97;94785.69;4998856;28;20175;-75
2023/05/28 10:16:29;;;;;;;2.08;1.92;;;;;;;19.89;55.35;94793.81;5002112;28;20368;-74
2023/05/28 10:18:56;;;;;;;2.22;2.05;;;;;;;19.93;55.17;94792.38;5004040;28;20265;-73
2023/05/28 10:21:22;;;;;;;3.20;1.88;;;;;;;19.92;54.82;94794.22;5006580;28;20226;-72
2023/05/28 10:23:52;;;;;;;2.75;2.20;;;;;;;19.86;55.46;94799.59;5005600;28;20245;-73
2023/05/28 10:26:18;;;;;;;2.60;2.30;;;;;;;20.02;54.78;94789.22;5007965;28;20186;-75
2023/05/28 10:28:44;;;;;;;2.78;2.58;;;;;;;20.42;54.25;94780.94;5004748;28;20176;-75
2023/05/28 10:31:10;;;;;;;2.58;2.20;;;;;;;20.89;52.65;94780.50;5004262;28;20326;-75
2023/05/28 10:33:43;;;;;;;2.70;2.35;;;;;;;21.30;52.05;94782.53;5008398;28;20222;-72
2023/05/28 10:36:14;;;;;;;3.58;2.63;;;;;;;21.50;50.07;94784.97;5002245;28;20219;-73
2023/05/28 10:38:44;;;;;;;3.40;2.60;;;;;;;21.45;50.62;94787.50;5000359;28;20226;-74
2023/05/28 10:41:10;;;;;;;2.47;2.28;;;;;;;21.47;49.95;94779.28;5006270;28;20191;-74
2023/05/28 10:43:38;;;;;;;2.35;2.17;;;;;;;21.34;50.80;94782.88;5006734;28;20233;-73
2023/05/28 10:46:18;;;;;;;3.03;2.72;;;;;;;21.64;49.62;94771.44;5005362;28;20224;-73
2023/05/28 10:49:08;;;;;;;2.63;2.42;;;;;;;21.62;49.44;94777.00;5006006;28;20285;-73
2023/05/28 10:51:54;;;;;;;2.65;2.45;;;;;;;21.70;49.75;94773.19;5006770;28;20227;-74
2023/05/28 10:54:29;;;;;;;2.85;2.58;;;;;;;21.89;48.45;94765.91;5032907;28;20250;-73
2023/05/28 10:57:14;;;;;;;3.00;2.65;;;;;;;21.62;48.73;94771.66;5002064;28;20313;-74
2023/05/28 10:59:53;;;;;;;3.58;2.45;;;;;;;21.85;49.06;94762.09;4997297;28;20257;-73
2023/05/28 11:02:28;;;;;;;3.15;2.88;;;;;;;21.94;48.71;94750.00;5003012;28;20245;-73
2023/05/28 11:05:00;;;;;;;2.67;2.47;;;;;;;22.12;48.59;94755.28;5006035;28;20183;-72
2023/05/28 11:07:33;;;;;;;3.28;2.35;;;;;;;22.41;47.18;94755.47;5005197;28;20279;-74
2023/05/28 11:10:00;;;;;;;2.72;2.53;;;;;;;22.57;46.33;94753.97;5002205;28;20219;-74
2023/05/28 11:12:27;;;;;;;3.05;2.75;;;;;;;22.59;46.79;94752.69;5007987;28;20220;-72
2023/05/28 11:14:53;;;;;;;4.05;2.92;;;;;;;22.52;46.61;94753.84;4999975;28;20365;-74
2023/05/28 11:17:19;;;;;;;3.40;3.10;;;;;;;22.40;46.88;94753.81;5006283;28;20277;-72
2023/05/28 11:19:49;;;;;;;3.10;2.90;;;;;;;22.19;45.82;94753.34;5005789;28;20234;-74
2023/05/28 11:22:17;;;;;;;3.10;2.80;;;;;;;21.63;48.58;94756.44;5008037;28;20896;-74
2023/05/28 11:25:07;;;;;;;3.10;2.85;;;;;;;21.83;48.40;94754.28;5006707;28;20218;-74
2023/05/28 11:27:35;;;;;;;3.25;3.00;;;;;;;21.83;47.58;94756.94;5002870;28;20237;-73
2023/05/28 11:30:02;;;;;;;3.17;2.92;;;;;;;21.73;47.76;94754.84;5005192;28;20218;-74
2023/05/28 11:32:31;;;;;;;3.63;3.33;;;;;;;21.65;47.76;94749.81;5003065;28;21357;-73